sensor_id;sensor_type;location;lat;lon;timestamp;temperature;humidity
26186;DHT22;20067;48.764;9.176;2023-02-26T00:01:35;2.80;83.40
26186;DHT22;20067;48.764;9.176;2023-02-26T00:04:03;2.70;84.10
26186;DHT22;20067;48.764;9.176;2023-02-26T00:06:35;2.80;84.50
26186;DHT22;20067;48.764;9.176;2023-02-26T00:09:02;2.90;82.90
26186;DHT22;20067;48.764;9.176;2023-02-26T00:11:28;2.80;83.20
26186;DHT22;20067;48.764;9.176;2023-02-26T00:13:54;2.70;83.40
26186;DHT22;20067;48.764;9.176;2023-02-26T00:18:53;2.50;83.60
26186;DHT22;20067;48.764;9.176;2023-02-26T00:21:21;2.40;83.30
26186;DHT22;20067;48.764;9.176;2023-02-26T00:23:47;2.30;83.80
26186;DHT22;20067;48.764;9.176;2023-02-26T00:26:13;2.30;84.20
26186;DHT22;20067;48.764;9.176;2023-02-26T00:28:39;2.20;84.60
26186;DHT22;20067;48.764;9.176;2023-02-26T00:31:05;2.20;83.60
26186;DHT22;20067;48.764;9.176;2023-02-26T00:33:32;2.20;84.20
26186;DHT22;20067;48.764;9.176;2023-02-26T00:41:38;2.10;84.60
26186;DHT22;20067;48.764;9.176;2023-02-26T00:44:05;2.10;84.20
26186;DHT22;20067;48.764;9.176;2023-02-26T00:51:58;2.20;84.20
26186;DHT22;20067;48.764;9.176;2023-02-26T00:54:29;2.20;84.00
26186;DHT22;20067;48.764;9.176;2023-02-26T00:56:57;2.10;84.20
26186;DHT22;20067;48.764;9.176;2023-02-26T00:59:24;2.00;84.40
26186;DHT22;20067;48.764;9.176;2023-02-26T01:01:50;2.10;84.70
26186;DHT22;20067;48.764;9.176;2023-02-26T01:04:18;2.00;84.20
26186;DHT22;20067;48.764;9.176;2023-02-26T01:06:48;1.90;84.60
26186;DHT22;20067;48.764;9.176;2023-02-26T01:09:33;1.90;85.00
26186;DHT22;20067;48.764;9.176;2023-02-26T01:12:03;2.00;84.90
26186;DHT22;20067;48.764;9.176;2023-02-26T01:14:30;2.00;84.90
26186;DHT22;20067;48.764;9.176;2023-02-26T01:17:15;2.00;84.20
26186;DHT22;20067;48.764;9.176;2023-02-26T01:19:48;1.90;83.90
26186;DHT22;20067;48.764;9.176;2023-02-26T01:24:48;1.90;84.70
26186;DHT22;20067;48.764;9.176;2023-02-26T01:27:16;2.00;84.30
26186;DHT22;20067;48.764;9.176;2023-02-26T01:29:42;1.90;84.00
26186;DHT22;20067;48.764;9.176;2023-02-26T01:35:50;1.80;84.30
26186;DHT22;20067;48.764;9.176;2023-02-26T01:43:33;1.80;84.20
26186;DHT22;20067;48.764;9.176;2023-02-26T01:48:45;1.90;84.00
26186;DHT22;20067;48.764;9.176;2023-02-26T01:51:12;1.80;83.80
26186;DHT22;20067;48.764;9.176;2023-02-26T01:53:37;1.80;83.70
26186;DHT22;20067;48.764;9.176;2023-02-26T01:56:10;1.60;83.80
26186;DHT22;20067;48.764;9.176;2023-02-26T01:58:38;1.50;84.50
26186;DHT22;20067;48.764;9.176;2023-02-26T02:01:05;1.30;84.70
26186;DHT22;20067;48.764;9.176;2023-02-26T02:03:33;1.40;85.00
26186;DHT22;20067;48.764;9.176;2023-02-26T02:06:13;1.40;85.00
26186;DHT22;20067;48.764;9.176;2023-02-26T02:08:40;1.50;85.10
26186;DHT22;20067;48.764;9.176;2023-02-26T02:11:09;1.50;84.90
26186;DHT22;20067;48.764;9.176;2023-02-26T02:30:05;1.40;85.00
26186;DHT22;20067;48.764;9.176;2023-02-26T02:32:45;1.40;85.30
26186;DHT22;20067;48.764;9.176;2023-02-26T02:35:19;1.50;84.90
26186;DHT22;20067;48.764;9.176;2023-02-26T02:40:30;1.50;84.10
26186;DHT22;20067;48.764;9.176;2023-02-26T02:43:09;1.50;83.70
26186;DHT22;20067;48.764;9.176;2023-02-26T02:45:49;1.30;83.80
26186;DHT22;20067;48.764;9.176;2023-02-26T02:48:39;1.20;84.40
26186;DHT22;20067;48.764;9.176;2023-02-26T02:51:10;1.20;84.60
26186;DHT22;20067;48.764;9.176;2023-02-26T02:53:44;1.00;84.90
26186;DHT22;20067;48.764;9.176;2023-02-26T02:56:24;0.90;86.00
26186;DHT22;20067;48.764;9.176;2023-02-26T02:59:00;0.90;86.50
26186;DHT22;20067;48.764;9.176;2023-02-26T03:01:29;1.00;86.20
26186;DHT22;20067;48.764;9.176;2023-02-26T03:04:09;1.00;85.60
26186;DHT22;20067;48.764;9.176;2023-02-26T03:06:35;0.90;85.30
26186;DHT22;20067;48.764;9.176;2023-02-26T03:09:04;1.00;85.60
26186;DHT22;20067;48.764;9.176;2023-02-26T03:11:31;1.00;85.60
26186;DHT22;20067;48.764;9.176;2023-02-26T03:13:57;1.10;85.70
26186;DHT22;20067;48.764;9.176;2023-02-26T03:19:48;1.10;85.10
26186;DHT22;20067;48.764;9.176;2023-02-26T03:27:51;1.20;84.50
26186;DHT22;20067;48.764;9.176;2023-02-26T03:33:28;1.20;84.80
26186;DHT22;20067;48.764;9.176;2023-02-26T03:36:22;1.20;85.00
26186;DHT22;20067;48.764;9.176;2023-02-26T03:39:19;1.20;84.80
26186;DHT22;20067;48.764;9.176;2023-02-26T03:44:28;1.10;84.70
26186;DHT22;20067;48.764;9.176;2023-02-26T03:46:59;1.20;84.60
26186;DHT22;20067;48.764;9.176;2023-02-26T03:49:39;1.20;84.30
26186;DHT22;20067;48.764;9.176;2023-02-26T03:52:06;1.30;84.40
26186;DHT22;20067;48.764;9.176;2023-02-26T03:54:40;1.40;84.10
26186;DHT22;20067;48.764;9.176;2023-02-26T03:57:06;1.30;84.30
26186;DHT22;20067;48.764;9.176;2023-02-26T03:59:33;1.20;84.20
26186;DHT22;20067;48.764;9.176;2023-02-26T04:04:44;1.20;84.10
26186;DHT22;20067;48.764;9.176;2023-02-26T04:07:12;1.20;84.50
26186;DHT22;20067;48.764;9.176;2023-02-26T04:09:43;1.10;84.50
26186;DHT22;20067;48.764;9.176;2023-02-26T04:12:10;1.10;84.70
26186;DHT22;20067;48.764;9.176;2023-02-26T04:14:36;1.00;84.30
26186;DHT22;20067;48.764;9.176;2023-02-26T04:17:02;0.90;85.60
26186;DHT22;20067;48.764;9.176;2023-02-26T04:19:27;0.90;85.50
26186;DHT22;20067;48.764;9.176;2023-02-26T04:21:53;0.90;85.30
26186;DHT22;20067;48.764;9.176;2023-02-26T04:24:19;0.80;85.90
26186;DHT22;20067;48.764;9.176;2023-02-26T04:26:44;0.80;86.10
26186;DHT22;20067;48.764;9.176;2023-02-26T04:29:10;0.80;86.40
26186;DHT22;20067;48.764;9.176;2023-02-26T04:31:36;0.70;86.10
26186;DHT22;20067;48.764;9.176;2023-02-26T04:34:02;0.80;86.50
26186;DHT22;20067;48.764;9.176;2023-02-26T04:36:28;0.80;86.00
26186;DHT22;20067;48.764;9.176;2023-02-26T04:38:53;0.90;86.30
26186;DHT22;20067;48.764;9.176;2023-02-26T04:41:19;0.80;86.20
26186;DHT22;20067;48.764;9.176;2023-02-26T04:43:45;0.70;86.30
26186;DHT22;20067;48.764;9.176;2023-02-26T04:46:10;0.60;86.40
26186;DHT22;20067;48.764;9.176;2023-02-26T04:48:36;0.60;86.80
26186;DHT22;20067;48.764;9.176;2023-02-26T04:51:02;0.50;87.20
26186;DHT22;20067;48.764;9.176;2023-02-26T04:53:28;0.60;87.40
26186;DHT22;20067;48.764;9.176;2023-02-26T04:55:53;0.50;87.30
26186;DHT22;20067;48.764;9.176;2023-02-26T04:58:19;0.50;87.20
26186;DHT22;20067;48.764;9.176;2023-02-26T05:00:49;0.50;86.90
26186;DHT22;20067;48.764;9.176;2023-02-26T05:03:15;0.50;87.00
26186;DHT22;20067;48.764;9.176;2023-02-26T05:05:41;0.30;87.50
26186;DHT22;20067;48.764;9.176;2023-02-26T05:08:06;0.30;87.60
26186;DHT22;20067;48.764;9.176;2023-02-26T05:10:32;0.40;87.80
26186;DHT22;20067;48.764;9.176;2023-02-26T05:12:58;0.40;87.60
26186;DHT22;20067;48.764;9.176;2023-02-26T05:15:23;0.40;87.70
26186;DHT22;20067;48.764;9.176;2023-02-26T05:17:49;0.30;87.90
26186;DHT22;20067;48.764;9.176;2023-02-26T05:20:14;0.40;87.60
26186;DHT22;20067;48.764;9.176;2023-02-26T05:22:40;0.30;87.60
26186;DHT22;20067;48.764;9.176;2023-02-26T05:25:07;0.30;87.80
26186;DHT22;20067;48.764;9.176;2023-02-26T05:27:33;0.40;87.90
26186;DHT22;20067;48.764;9.176;2023-02-26T05:29:59;0.30;87.50
26186;DHT22;20067;48.764;9.176;2023-02-26T05:32:25;0.20;87.90
26186;DHT22;20067;48.764;9.176;2023-02-26T05:34:50;0.20;88.00
26186;DHT22;20067;48.764;9.176;2023-02-26T05:37:16;0.20;88.00
26186;DHT22;20067;48.764;9.176;2023-02-26T05:39:41;0.10;88.20
26186;DHT22;20067;48.764;9.176;2023-02-26T05:42:07;0.20;88.30
26186;DHT22;20067;48.764;9.176;2023-02-26T05:44:33;0.10;88.60
26186;DHT22;20067;48.764;9.176;2023-02-26T05:47:00;0.10;88.40
26186;DHT22;20067;48.764;9.176;2023-02-26T05:49:26;0.10;88.60
26186;DHT22;20067;48.764;9.176;2023-02-26T05:51:51;0.20;88.60
26186;DHT22;20067;48.764;9.176;2023-02-26T05:54:17;0.20;88.30
26186;DHT22;20067;48.764;9.176;2023-02-26T05:56:43;0.20;88.10
26186;DHT22;20067;48.764;9.176;2023-02-26T05:59:08;0.20;88.50
26186;DHT22;20067;48.764;9.176;2023-02-26T06:01:34;0.20;88.80
26186;DHT22;20067;48.764;9.176;2023-02-26T06:04:02;0.30;88.60
26186;DHT22;20067;48.764;9.176;2023-02-26T06:06:28;0.40;88.50
26186;DHT22;20067;48.764;9.176;2023-02-26T06:08:54;0.40;88.10
26186;DHT22;20067;48.764;9.176;2023-02-26T06:11:19;0.20;87.90
26186;DHT22;20067;48.764;9.176;2023-02-26T06:13:45;0.20;88.70
26186;DHT22;20067;48.764;9.176;2023-02-26T06:16:10;0.00;89.00
26186;DHT22;20067;48.764;9.176;2023-02-26T06:18:36;-0.10;89.90
26186;DHT22;20067;48.764;9.176;2023-02-26T06:21:02;-0.20;90.30
26186;DHT22;20067;48.764;9.176;2023-02-26T06:23:27;-0.20;90.10
26186;DHT22;20067;48.764;9.176;2023-02-26T06:25:53;-0.20;90.30
26186;DHT22;20067;48.764;9.176;2023-02-26T06:28:19;-0.10;90.10
26186;DHT22;20067;48.764;9.176;2023-02-26T06:30:45;-0.20;89.90
26186;DHT22;20067;48.764;9.176;2023-02-26T06:33:11;-0.10;90.10
26186;DHT22;20067;48.764;9.176;2023-02-26T06:35:37;-0.10;89.80
26186;DHT22;20067;48.764;9.176;2023-02-26T06:38:02;-0.20;90.00
26186;DHT22;20067;48.764;9.176;2023-02-26T06:40:29;-0.20;90.20
26186;DHT22;20067;48.764;9.176;2023-02-26T06:42:55;-0.10;90.30
26186;DHT22;20067;48.764;9.176;2023-02-26T06:45:21;0.00;89.90
26186;DHT22;20067;48.764;9.176;2023-02-26T06:47:49;-0.10;89.70
26186;DHT22;20067;48.764;9.176;2023-02-26T06:50:15;0.00;90.30
26186;DHT22;20067;48.764;9.176;2023-02-26T06:52:41;0.00;89.80
26186;DHT22;20067;48.764;9.176;2023-02-26T06:55:07;-0.10;90.00
26186;DHT22;20067;48.764;9.176;2023-02-26T06:57:32;-0.10;90.00
26186;DHT22;20067;48.764;9.176;2023-02-26T06:59:58;-0.10;89.70
26186;DHT22;20067;48.764;9.176;2023-02-26T07:02:25;-0.30;90.70
26186;DHT22;20067;48.764;9.176;2023-02-26T07:04:51;-0.40;91.00
26186;DHT22;20067;48.764;9.176;2023-02-26T07:07:17;-0.20;90.80
26186;DHT22;20067;48.764;9.176;2023-02-26T07:09:43;-0.20;91.20
26186;DHT22;20067;48.764;9.176;2023-02-26T07:12:08;-0.10;90.70
26186;DHT22;20067;48.764;9.176;2023-02-26T07:14:34;0.00;90.20
26186;DHT22;20067;48.764;9.176;2023-02-26T07:17:00;0.00;90.00
26186;DHT22;20067;48.764;9.176;2023-02-26T07:19:26;0.20;89.40
26186;DHT22;20067;48.764;9.176;2023-02-26T07:21:52;0.30;89.10
26186;DHT22;20067;48.764;9.176;2023-02-26T07:24:20;0.30;89.00
26186;DHT22;20067;48.764;9.176;2023-02-26T07:26:45;0.30;89.00
26186;DHT22;20067;48.764;9.176;2023-02-26T07:29:11;0.40;88.80
26186;DHT22;20067;48.764;9.176;2023-02-26T07:31:37;0.60;88.80
26186;DHT22;20067;48.764;9.176;2023-02-26T07:34:02;0.80;88.50
26186;DHT22;20067;48.764;9.176;2023-02-26T07:36:28;0.90;87.60
26186;DHT22;20067;48.764;9.176;2023-02-26T07:38:54;0.90;87.30
26186;DHT22;20067;48.764;9.176;2023-02-26T07:41:19;1.10;87.20
26186;DHT22;20067;48.764;9.176;2023-02-26T07:43:45;1.20;86.30
26186;DHT22;20067;48.764;9.176;2023-02-26T07:46:11;1.20;86.00
26186;DHT22;20067;48.764;9.176;2023-02-26T07:48:37;1.20;85.80
26186;DHT22;20067;48.764;9.176;2023-02-26T07:51:03;1.30;85.90
26186;DHT22;20067;48.764;9.176;2023-02-26T07:53:29;1.30;85.80
26186;DHT22;20067;48.764;9.176;2023-02-26T07:55:55;1.30;85.40
26186;DHT22;20067;48.764;9.176;2023-02-26T07:58:20;1.20;85.60
26186;DHT22;20067;48.764;9.176;2023-02-26T08:00:46;1.20;85.50
26186;DHT22;20067;48.764;9.176;2023-02-26T08:03:11;1.20;85.60
26186;DHT22;20067;48.764;9.176;2023-02-26T08:05:37;1.20;85.90
26186;DHT22;20067;48.764;9.176;2023-02-26T08:08:03;1.10;86.20
26186;DHT22;20067;48.764;9.176;2023-02-26T08:10:29;1.10;87.90
26186;DHT22;20067;48.764;9.176;2023-02-26T08:12:55;1.00;89.90
26186;DHT22;20067;48.764;9.176;2023-02-26T08:15:20;1.20;88.90
26186;DHT22;20067;48.764;9.176;2023-02-26T08:17:46;1.50;88.70
26186;DHT22;20067;48.764;9.176;2023-02-26T08:20:12;1.50;87.70
26186;DHT22;20067;48.764;9.176;2023-02-26T08:22:40;1.50;87.30
26186;DHT22;20067;48.764;9.176;2023-02-26T08:25:06;1.50;86.70
26186;DHT22;20067;48.764;9.176;2023-02-26T08:27:32;1.30;87.80
26186;DHT22;20067;48.764;9.176;2023-02-26T08:29:58;1.30;88.10
26186;DHT22;20067;48.764;9.176;2023-02-26T08:32:23;1.50;87.50
26186;DHT22;20067;48.764;9.176;2023-02-26T08:34:51;1.60;87.50
26186;DHT22;20067;48.764;9.176;2023-02-26T08:37:17;1.80;87.10
26186;DHT22;20067;48.764;9.176;2023-02-26T08:39:42;1.70;85.40
26186;DHT22;20067;48.764;9.176;2023-02-26T08:42:09;1.30;86.00
26186;DHT22;20067;48.764;9.176;2023-02-26T08:44:35;1.30;86.70
26186;DHT22;20067;48.764;9.176;2023-02-26T08:47:01;1.30;87.00
26186;DHT22;20067;48.764;9.176;2023-02-26T08:49:28;1.10;87.50
26186;DHT22;20067;48.764;9.176;2023-02-26T08:51:53;0.90;88.30
26186;DHT22;20067;48.764;9.176;2023-02-26T08:54:19;0.90;88.70
26186;DHT22;20067;48.764;9.176;2023-02-26T08:56:45;1.10;87.50
26186;DHT22;20067;48.764;9.176;2023-02-26T08:59:10;1.10;87.70
26186;DHT22;20067;48.764;9.176;2023-02-26T09:01:37;1.10;87.20
26186;DHT22;20067;48.764;9.176;2023-02-26T09:04:03;1.00;87.40
26186;DHT22;20067;48.764;9.176;2023-02-26T09:06:29;1.10;87.40
26186;DHT22;20067;48.764;9.176;2023-02-26T09:08:55;1.00;87.20
26186;DHT22;20067;48.764;9.176;2023-02-26T09:11:20;0.90;87.60
26186;DHT22;20067;48.764;9.176;2023-02-26T09:13:46;1.00;87.60
26186;DHT22;20067;48.764;9.176;2023-02-26T09:16:11;0.70;87.90
26186;DHT22;20067;48.764;9.176;2023-02-26T09:18:37;0.60;89.00
26186;DHT22;20067;48.764;9.176;2023-02-26T09:21:03;0.80;89.20
26186;DHT22;20067;48.764;9.176;2023-02-26T09:23:29;1.00;88.20
26186;DHT22;20067;48.764;9.176;2023-02-26T09:25:56;1.20;88.00
26186;DHT22;20067;48.764;9.176;2023-02-26T09:28:23;1.20;86.90
26186;DHT22;20067;48.764;9.176;2023-02-26T09:30:53;1.20;87.10
26186;DHT22;20067;48.764;9.176;2023-02-26T09:33:20;1.00;88.00
26186;DHT22;20067;48.764;9.176;2023-02-26T09:35:48;1.10;88.30
26186;DHT22;20067;48.764;9.176;2023-02-26T09:38:13;1.20;88.60
26186;DHT22;20067;48.764;9.176;2023-02-26T09:40:58;1.00;89.00
26186;DHT22;20067;48.764;9.176;2023-02-26T09:46:09;1.00;89.90
26186;DHT22;20067;48.764;9.176;2023-02-26T09:48:37;1.00;89.20
26186;DHT22;20067;48.764;9.176;2023-02-26T09:51:04;0.90;88.90
26186;DHT22;20067;48.764;9.176;2023-02-26T09:53:34;1.00;89.00
26186;DHT22;20067;48.764;9.176;2023-02-26T09:56:23;0.90;88.40
26186;DHT22;20067;48.764;9.176;2023-02-26T09:58:50;1.00;88.70
26186;DHT22;20067;48.764;9.176;2023-02-26T10:01:34;0.90;88.60
26186;DHT22;20067;48.764;9.176;2023-02-26T10:10:17;0.90;90.40
26186;DHT22;20067;48.764;9.176;2023-02-26T10:12:46;1.10;90.10
26186;DHT22;20067;48.764;9.176;2023-02-26T10:15:22;1.20;89.80
26186;DHT22;20067;48.764;9.176;2023-02-26T10:20:59;1.30;90.30
26186;DHT22;20067;48.764;9.176;2023-02-26T10:23:56;1.20;90.30
26186;DHT22;20067;48.764;9.176;2023-02-26T10:26:29;1.40;90.20
26186;DHT22;20067;48.764;9.176;2023-02-26T10:34:57;1.10;90.10
26186;DHT22;20067;48.764;9.176;2023-02-26T10:37:55;1.30;90.00
26186;DHT22;20067;48.764;9.176;2023-02-26T10:51:19;1.30;88.30
26186;DHT22;20067;48.764;9.176;2023-02-26T10:56:39;1.30;88.10
26186;DHT22;20067;48.764;9.176;2023-02-26T10:59:05;1.20;88.30
26186;DHT22;20067;48.764;9.176;2023-02-26T11:01:31;1.30;88.40
26186;DHT22;20067;48.764;9.176;2023-02-26T11:04:00;1.30;88.00
26186;DHT22;20067;48.764;9.176;2023-02-26T11:06:31;1.20;87.70
26186;DHT22;20067;48.764;9.176;2023-02-26T11:08:59;1.40;88.20
26186;DHT22;20067;48.764;9.176;2023-02-26T11:11:55;1.60;87.70
26186;DHT22;20067;48.764;9.176;2023-02-26T11:14:25;1.80;85.80
26186;DHT22;20067;48.764;9.176;2023-02-26T11:16:56;1.80;85.40
26186;DHT22;20067;48.764;9.176;2023-02-26T11:20:13;1.70;86.30
26186;DHT22;20067;48.764;9.176;2023-02-26T11:22:14;1.90;86.10
26186;DHT22;20067;48.764;9.176;2023-02-26T11:24:45;1.90;85.40
26186;DHT22;20067;48.764;9.176;2023-02-26T11:27:17;1.80;85.50
26186;DHT22;20067;48.764;9.176;2023-02-26T11:29:47;1.80;85.90
26186;DHT22;20067;48.764;9.176;2023-02-26T11:32:20;2.00;85.50
26186;DHT22;20067;48.764;9.176;2023-02-26T11:34:48;1.90;85.40
26186;DHT22;20067;48.764;9.176;2023-02-26T11:37:19;1.90;85.60
26186;DHT22;20067;48.764;9.176;2023-02-26T11:39:46;2.00;85.40
26186;DHT22;20067;48.764;9.176;2023-02-26T11:42:15;1.80;85.50
26186;DHT22;20067;48.764;9.176;2023-02-26T11:44:44;2.00;84.30
26186;DHT22;20067;48.764;9.176;2023-02-26T11:47:18;2.00;84.00
26186;DHT22;20067;48.764;9.176;2023-02-26T11:49:50;2.00;84.00
26186;DHT22;20067;48.764;9.176;2023-02-26T11:55:04;1.70;84.10
26186;DHT22;20067;48.764;9.176;2023-02-26T11:57:32;1.80;83.90
26186;DHT22;20067;48.764;9.176;2023-02-26T11:59:59;1.80;84.10
26186;DHT22;20067;48.764;9.176;2023-02-26T12:02:31;1.90;84.00
26186;DHT22;20067;48.764;9.176;2023-02-26T12:05:02;2.00;83.80
26186;DHT22;20067;48.764;9.176;2023-02-26T12:07:29;1.90;84.50
26186;DHT22;20067;48.764;9.176;2023-02-26T12:09:55;1.90;84.90
26186;DHT22;20067;48.764;9.176;2023-02-26T12:12:33;2.00;85.40
26186;DHT22;20067;48.764;9.176;2023-02-26T12:20:45;1.90;87.40
26186;DHT22;20067;48.764;9.176;2023-02-26T12:29:10;2.10;85.90
26186;DHT22;20067;48.764;9.176;2023-02-26T12:37:08;2.00;86.10
26186;DHT22;20067;48.764;9.176;2023-02-26T12:40:11;2.10;86.20
26186;DHT22;20067;48.764;9.176;2023-02-26T12:45:25;2.00;85.30
26186;DHT22;20067;48.764;9.176;2023-02-26T13:01:57;2.30;84.40
26186;DHT22;20067;48.764;9.176;2023-02-26T13:10:14;2.50;84.30
26186;DHT22;20067;48.764;9.176;2023-02-26T13:15:45;2.70;83.20
26186;DHT22;20067;48.764;9.176;2023-02-26T13:18:34;2.40;82.40
26186;DHT22;20067;48.764;9.176;2023-02-26T13:21:07;2.40;82.20
26186;DHT22;20067;48.764;9.176;2023-02-26T13:23:48;2.60;81.70
26186;DHT22;20067;48.764;9.176;2023-02-26T13:26:17;2.50;81.70
26186;DHT22;20067;48.764;9.176;2023-02-26T13:28:56;2.50;82.10
26186;DHT22;20067;48.764;9.176;2023-02-26T13:31:32;2.60;81.50
26186;DHT22;20067;48.764;9.176;2023-02-26T13:34:05;2.30;81.60
26186;DHT22;20067;48.764;9.176;2023-02-26T13:36:32;2.30;82.20
26186;DHT22;20067;48.764;9.176;2023-02-26T13:42:13;2.70;81.20
26186;DHT22;20067;48.764;9.176;2023-02-26T13:47:55;2.60;78.80
26186;DHT22;20067;48.764;9.176;2023-02-26T13:50:27;2.50;79.10
26186;DHT22;20067;48.764;9.176;2023-02-26T13:53:01;2.60;79.00
26186;DHT22;20067;48.764;9.176;2023-02-26T13:55:41;2.90;78.30
26186;DHT22;20067;48.764;9.176;2023-02-26T14:01:12;3.00;78.10
26186;DHT22;20067;48.764;9.176;2023-02-26T14:03:46;3.00;77.50
26186;DHT22;20067;48.764;9.176;2023-02-26T14:08:56;3.30;76.70
26186;DHT22;20067;48.764;9.176;2023-02-26T14:11:41;3.20;75.40
26186;DHT22;20067;48.764;9.176;2023-02-26T14:14:14;3.30;75.30
26186;DHT22;20067;48.764;9.176;2023-02-26T14:16:43;3.10;75.80
26186;DHT22;20067;48.764;9.176;2023-02-26T14:24:37;3.20;77.00
26186;DHT22;20067;48.764;9.176;2023-02-26T14:29:39;3.40;75.60
26186;DHT22;20067;48.764;9.176;2023-02-26T14:34:37;3.80;74.50
26186;DHT22;20067;48.764;9.176;2023-02-26T14:37:11;4.00;74.10
26186;DHT22;20067;48.764;9.176;2023-02-26T14:42:18;4.00;73.70
26186;DHT22;20067;48.764;9.176;2023-02-26T14:47:49;3.40;74.60
26186;DHT22;20067;48.764;9.176;2023-02-26T14:50:18;3.40;75.30
26186;DHT22;20067;48.764;9.176;2023-02-26T15:01:14;3.40;73.60
26186;DHT22;20067;48.764;9.176;2023-02-26T15:16:18;3.80;73.00
26186;DHT22;20067;48.764;9.176;2023-02-26T15:24:01;3.20;73.30
26186;DHT22;20067;48.764;9.176;2023-02-26T15:26:41;3.20;73.70
26186;DHT22;20067;48.764;9.176;2023-02-26T15:29:11;3.00;73.60
26186;DHT22;20067;48.764;9.176;2023-02-26T15:35:03;3.20;73.60
26186;DHT22;20067;48.764;9.176;2023-02-26T15:37:30;3.30;73.70
26186;DHT22;20067;48.764;9.176;2023-02-26T15:39:58;3.10;73.90
26186;DHT22;20067;48.764;9.176;2023-02-26T15:42:29;3.00;74.90
26186;DHT22;20067;48.764;9.176;2023-02-26T15:45:00;3.20;75.10
26186;DHT22;20067;48.764;9.176;2023-02-26T15:47:28;3.20;74.50
26186;DHT22;20067;48.764;9.176;2023-02-26T15:49:55;3.00;75.10
26186;DHT22;20067;48.764;9.176;2023-02-26T15:52:23;3.00;75.40
26186;DHT22;20067;48.764;9.176;2023-02-26T15:54:59;3.30;74.70
26186;DHT22;20067;48.764;9.176;2023-02-26T15:57:27;3.30;74.40
26186;DHT22;20067;48.764;9.176;2023-02-26T16:00:03;3.20;73.60
26186;DHT22;20067;48.764;9.176;2023-02-26T16:02:31;3.10;73.40
26186;DHT22;20067;48.764;9.176;2023-02-26T16:04:57;3.20;73.40
26186;DHT22;20067;48.764;9.176;2023-02-26T16:07:23;3.40;72.80
26186;DHT22;20067;48.764;9.176;2023-02-26T16:09:51;3.50;71.10
26186;DHT22;20067;48.764;9.176;2023-02-26T16:12:22;3.70;70.30
26186;DHT22;20067;48.764;9.176;2023-02-26T16:15:15;3.60;69.70
26186;DHT22;20067;48.764;9.176;2023-02-26T16:17:43;3.30;69.70
26186;DHT22;20067;48.764;9.176;2023-02-26T16:20:19;3.00;69.80
26186;DHT22;20067;48.764;9.176;2023-02-26T16:22:48;2.90;70.30
26186;DHT22;20067;48.764;9.176;2023-02-26T16:25:39;2.80;70.30
26186;DHT22;20067;48.764;9.176;2023-02-26T16:28:14;2.80;70.50
26186;DHT22;20067;48.764;9.176;2023-02-26T16:30:43;2.70;70.70
26186;DHT22;20067;48.764;9.176;2023-02-26T16:33:13;2.70;70.70
26186;DHT22;20067;48.764;9.176;2023-02-26T16:35:47;2.50;71.30
26186;DHT22;20067;48.764;9.176;2023-02-26T16:38:43;2.40;71.90
26186;DHT22;20067;48.764;9.176;2023-02-26T16:41:11;2.40;72.00
26186;DHT22;20067;48.764;9.176;2023-02-26T16:46:12;2.40;72.20
26186;DHT22;20067;48.764;9.176;2023-02-26T16:51:13;2.40;71.80
26186;DHT22;20067;48.764;9.176;2023-02-26T16:53:49;2.30;71.50
26186;DHT22;20067;48.764;9.176;2023-02-26T16:56:19;2.40;72.20
26186;DHT22;20067;48.764;9.176;2023-02-26T16:58:56;2.30;71.00
26186;DHT22;20067;48.764;9.176;2023-02-26T17:01:26;2.30;71.20
26186;DHT22;20067;48.764;9.176;2023-02-26T17:04:00;2.30;70.90
26186;DHT22;20067;48.764;9.176;2023-02-26T17:06:27;2.20;71.00
26186;DHT22;20067;48.764;9.176;2023-02-26T17:08:59;2.40;71.40
26186;DHT22;20067;48.764;9.176;2023-02-26T17:11:31;2.40;70.80
26186;DHT22;20067;48.764;9.176;2023-02-26T17:16:49;2.40;70.90
26186;DHT22;20067;48.764;9.176;2023-02-26T17:19:15;2.30;71.20
26186;DHT22;20067;48.764;9.176;2023-02-26T17:22:01;2.30;71.80
26186;DHT22;20067;48.764;9.176;2023-02-26T17:24:40;2.40;71.00
26186;DHT22;20067;48.764;9.176;2023-02-26T17:27:14;2.40;71.00
26186;DHT22;20067;48.764;9.176;2023-02-26T17:29:43;2.30;71.10
26186;DHT22;20067;48.764;9.176;2023-02-26T17:32:16;2.30;71.40
26186;DHT22;20067;48.764;9.176;2023-02-26T17:34:42;2.20;71.20
26186;DHT22;20067;48.764;9.176;2023-02-26T17:37:11;2.10;71.30
26186;DHT22;20067;48.764;9.176;2023-02-26T17:39:37;2.20;71.70
26186;DHT22;20067;48.764;9.176;2023-02-26T17:42:02;2.10;72.00
26186;DHT22;20067;48.764;9.176;2023-02-26T17:44:28;2.10;71.70
26186;DHT22;20067;48.764;9.176;2023-02-26T17:46:54;2.00;72.40
26186;DHT22;20067;48.764;9.176;2023-02-26T17:49:19;2.10;72.50
26186;DHT22;20067;48.764;9.176;2023-02-26T17:51:45;2.10;72.70
26186;DHT22;20067;48.764;9.176;2023-02-26T17:54:11;2.20;72.90
26186;DHT22;20067;48.764;9.176;2023-02-26T17:56:36;2.10;73.00
26186;DHT22;20067;48.764;9.176;2023-02-26T17:59:02;2.10;73.40
26186;DHT22;20067;48.764;9.176;2023-02-26T18:01:29;2.00;74.10
26186;DHT22;20067;48.764;9.176;2023-02-26T18:03:55;1.90;74.10
26186;DHT22;20067;48.764;9.176;2023-02-26T18:06:22;1.90;74.00
26186;DHT22;20067;48.764;9.176;2023-02-26T18:08:49;1.80;74.50
26186;DHT22;20067;48.764;9.176;2023-02-26T18:11:16;1.80;74.90
26186;DHT22;20067;48.764;9.176;2023-02-26T18:13:42;1.70;74.40
26186;DHT22;20067;48.764;9.176;2023-02-26T18:16:21;1.60;74.80
26186;DHT22;20067;48.764;9.176;2023-02-26T18:18:47;1.60;75.00
26186;DHT22;20067;48.764;9.176;2023-02-26T18:21:13;1.60;74.90
26186;DHT22;20067;48.764;9.176;2023-02-26T18:23:39;1.60;74.90
26186;DHT22;20067;48.764;9.176;2023-02-26T18:26:05;1.60;74.40
26186;DHT22;20067;48.764;9.176;2023-02-26T18:28:31;1.60;74.50
26186;DHT22;20067;48.764;9.176;2023-02-26T18:30:57;1.50;74.60
26186;DHT22;20067;48.764;9.176;2023-02-26T18:33:24;1.50;74.50
26186;DHT22;20067;48.764;9.176;2023-02-26T18:35:54;1.50;74.40
26186;DHT22;20067;48.764;9.176;2023-02-26T18:38:26;1.40;74.80
26186;DHT22;20067;48.764;9.176;2023-02-26T18:40:53;1.50;74.70
26186;DHT22;20067;48.764;9.176;2023-02-26T18:43:19;1.50;74.60
26186;DHT22;20067;48.764;9.176;2023-02-26T18:45:46;1.50;74.30
26186;DHT22;20067;48.764;9.176;2023-02-26T18:48:15;1.30;73.90
26186;DHT22;20067;48.764;9.176;2023-02-26T18:50:42;1.40;74.40
26186;DHT22;20067;48.764;9.176;2023-02-26T18:53:08;1.40;74.30
26186;DHT22;20067;48.764;9.176;2023-02-26T18:55:34;1.30;74.20
26186;DHT22;20067;48.764;9.176;2023-02-26T18:58:00;1.30;74.50
26186;DHT22;20067;48.764;9.176;2023-02-26T19:00:26;1.40;74.60
26186;DHT22;20067;48.764;9.176;2023-02-26T19:02:53;1.30;74.40
26186;DHT22;20067;48.764;9.176;2023-02-26T19:05:19;1.30;74.60
26186;DHT22;20067;48.764;9.176;2023-02-26T19:07:48;1.30;74.60
26186;DHT22;20067;48.764;9.176;2023-02-26T19:10:15;1.30;74.80
26186;DHT22;20067;48.764;9.176;2023-02-26T19:12:41;1.40;74.90
26186;DHT22;20067;48.764;9.176;2023-02-26T19:15:08;1.50;74.70
26186;DHT22;20067;48.764;9.176;2023-02-26T19:17:35;1.40;74.80
26186;DHT22;20067;48.764;9.176;2023-02-26T19:20:01;1.40;74.70
26186;DHT22;20067;48.764;9.176;2023-02-26T19:22:26;1.30;74.90
26186;DHT22;20067;48.764;9.176;2023-02-26T19:24:52;1.30;75.10